Americus, Missouri
Current Conditions -  °F | °C
As of 4:35 AM on Friday 21 Nov 2014 (Local Time) from KFYG Reporting Station
Scattered Clouds Scattered Clouds  
Wind Chill: 27°   Ceiling: Unl
Heat Index: 27°   Visibility: 10mi
Dew Point: 16°   Wind: 3mph
Humidity: 64%   Direction: 90°E
Pressure: 30.36"   Gusts: NA
Location:  38.7604°N, 91.5317°W
Report Text: KFYG 211035Z AUTO 09003KT 10SM SCT046 M03/M09 A3036 RMK AO2
Loading
Personal Weather Stations






























Interactive Weather Map New forecast layout! Learn more

10-Day Weather Forecast

Advertisements
Track Severe Weather on mobile